Time;durP1;ratioP1;P1;durP2;ratioP2;P2;SDS_P1;SDS_P2;PMS_P1;PMS_P2;Temp;Humidity;BMP_temperature;BMP_pressure;BME280_temperature;BME280_humidity;BME280_pressure;Samples;Min_cycle;Max_cycle;Signal;HPM_P1;HPM_P2
2021/12/22 00:00:56;;;;;;;;;;;6.00;99.90;;;;;;5100405;28;19918;-74
2021/12/22 00:03:23;;;;;;;;;;;6.10;99.90;;;;;;5092626;28;20187;-74
2021/12/22 00:05:50;;;;;;;;;;;6.10;99.90;;;;;;5099171;28;20404;-75
2021/12/22 00:08:17;;;;;;;;;;;6.10;99.90;;;;;;5097646;28;20324;-74
2021/12/22 00:10:44;;;;;;;;;;;6.20;99.90;;;;;;5088286;28;19907;-74
2021/12/22 00:13:10;;;;;;;;;;;6.20;99.90;;;;;;5097110;28;19963;-75
2021/12/22 00:15:36;;;;;;;;;;;6.10;99.90;;;;;;5088160;28;19943;-74
2021/12/22 00:18:01;;;;;;;;;;;6.10;99.90;;;;;;5093508;28;19908;-73
2021/12/22 00:20:27;;;;;;;;;;;6.00;99.90;;;;;;5091397;28;19928;-74
2021/12/22 00:22:53;;;;;;;;;;;6.00;99.90;;;;;;5097572;28;19969;-73
2021/12/22 00:25:20;;;;;;;;;;;6.00;99.90;;;;;;5095337;28;19912;-73
2021/12/22 00:27:46;;;;;;;;;;;5.90;99.90;;;;;;5098198;28;19998;-74
2021/12/22 00:30:12;;;;;;;;;;;5.90;99.90;;;;;;5094397;28;20053;-75
2021/12/22 00:32:39;;;;;;;;;;;5.80;99.90;;;;;;5091381;28;20355;-73
2021/12/22 00:35:05;;;;;;;;;;;5.70;99.90;;;;;;5097120;28;19908;-73
2021/12/22 00:37:32;;;;;;;;;;;5.70;99.90;;;;;;5080226;28;19915;-73
2021/12/22 00:39:57;;;;;;;;;;;5.70;99.90;;;;;;5090087;28;20253;-72
2021/12/22 00:42:24;;;;;;;;;;;5.80;99.90;;;;;;5090157;28;19908;-72
2021/12/22 00:44:52;;;;;;;;;;;5.80;99.90;;;;;;5094990;28;19908;-74
2021/12/22 00:47:18;;;;;;;;;;;5.80;99.90;;;;;;5102217;28;19977;-72
2021/12/22 00:49:45;;;;;;;;;;;5.80;99.90;;;;;;5101526;28;19908;-73
2021/12/22 00:52:11;;;;;;;;;;;5.90;99.90;;;;;;5101932;28;19915;-73
2021/12/22 00:54:36;;;;;;;;;;;5.90;99.90;;;;;;5099256;28;19908;-73
2021/12/22 00:57:06;;;;;;;;;;;5.90;99.90;;;;;;5095743;28;20341;-73
2021/12/22 00:59:32;;;;;;;;;;;5.90;99.90;;;;;;5104753;28;19953;-74
2021/12/22 01:01:58;;;;;;;;;;;5.80;99.90;;;;;;5129504;27;19965;-74
2021/12/22 01:04:24;;;;;;;;;;;5.80;99.90;;;;;;5087172;28;19946;-74
2021/12/22 01:06:49;;;;;;;;;;;5.70;99.90;;;;;;5081898;28;20399;-74
2021/12/22 01:09:15;;;;;;;;;;;5.70;99.90;;;;;;5095365;28;20003;-73
2021/12/22 01:11:40;;;;;;;;;;;5.70;99.90;;;;;;5101082;28;19912;-73
2021/12/22 01:14:06;;;;;;;;;;;5.60;99.90;;;;;;5090200;28;20119;-72
2021/12/22 01:16:31;;;;;;;;;;;5.50;99.90;;;;;;5099307;28;20184;-74
2021/12/22 01:19:01;;;;;;;;;;;5.50;99.90;;;;;;5097648;28;19908;-74
2021/12/22 01:21:42;;;;;;;;;;;5.50;99.90;;;;;;5102554;28;19904;-73
2021/12/22 01:26:41;;;;;;;;;;;5.70;99.90;;;;;;5100113;28;19907;-73
2021/12/22 01:29:07;;;;;;;;;;;5.80;99.90;;;;;;5087766;28;19907;-74
2021/12/22 01:31:32;;;;;;;;;;;5.80;99.90;;;;;;5089200;28;19923;-73
2021/12/22 01:33:59;;;;;;;;;;;6.00;99.90;;;;;;5095097;28;19922;-73
2021/12/22 01:36:24;;;;;;;;;;;6.00;99.90;;;;;;5097313;28;19912;-73
2021/12/22 01:38:50;;;;;;;;;;;6.10;99.90;;;;;;5092696;28;19904;-73
2021/12/22 01:41:15;;;;;;;;;;;6.30;99.90;;;;;;5100871;28;19908;-74
2021/12/22 01:43:41;;;;;;;;;;;6.30;99.90;;;;;;5101653;28;19912;-74
2021/12/22 01:46:30;;;;;;;;;;;6.30;99.90;;;;;;5099553;28;20261;-74
2021/12/22 01:49:11;;;;;;;;;;;6.40;99.90;;;;;;5098406;28;19908;-74
2021/12/22 01:51:55;;;;;;;;;;;6.30;99.90;;;;;;5092331;28;19926;-74
2021/12/22 01:54:23;;;;;;;;;;;6.30;99.90;;;;;;5090848;28;20007;-74
2021/12/22 01:56:50;;;;;;;;;;;6.10;99.90;;;;;;5092807;28;19916;-73
2021/12/22 01:59:16;;;;;;;;;;;6.10;99.90;;;;;;5100322;28;19904;-72
2021/12/22 02:01:42;;;;;;;;;;;6.00;99.90;;;;;;5098009;28;19919;-73
2021/12/22 02:04:10;;;;;;;;;;;5.90;99.90;;;;;;5096557;28;19937;-73
2021/12/22 02:06:37;;;;;;;;;;;6.00;99.90;;;;;;5087990;28;19923;-73
2021/12/22 02:09:03;;;;;;;;;;;5.90;99.90;;;;;;5080325;28;19964;-74
2021/12/22 02:11:29;;;;;;;;;;;5.90;99.90;;;;;;5098713;28;20101;-73
2021/12/22 02:14:01;;;;;;;;;;;5.90;99.90;;;;;;5095815;28;19955;-74
2021/12/22 02:16:30;;;;;;;;;;;5.90;99.90;;;;;;5103170;28;19915;-73
2021/12/22 02:18:56;;;;;;;;;;;5.80;99.90;;;;;;5078181;28;19920;-74
2021/12/22 02:21:24;;;;;;;;;;;5.80;99.90;;;;;;5067973;28;19915;-73
2021/12/22 02:23:49;;;;;;;;;;;5.80;99.90;;;;;;5086012;28;19913;-73
2021/12/22 02:26:33;;;;;;;;;;;5.80;99.90;;;;;;5096460;28;20476;-72
2021/12/22 02:29:03;;;;;;;;;;;5.90;99.90;;;;;;5099839;28;19911;-74
2021/12/22 02:31:33;;;;;;;;;;;5.90;99.90;;;;;;5103567;28;19919;-73
2021/12/22 02:33:59;;;;;;;;;;;5.90;99.90;;;;;;5086884;28;19934;-74
2021/12/22 02:36:29;;;;;;;;;;;5.90;99.90;;;;;;5096808;28;19908;-74
2021/12/22 02:38:56;;;;;;;;;;;5.90;99.90;;;;;;5098384;28;19923;-73
2021/12/22 02:41:26;;;;;;;;;;;6.00;99.90;;;;;;5099866;28;19943;-74
2021/12/22 02:43:54;;;;;;;;;;;6.00;99.90;;;;;;5093466;28;19911;-73
2021/12/22 02:46:21;;;;;;;;;;;6.10;99.90;;;;;;5096108;28;19999;-73
2021/12/22 02:48:47;;;;;;;;;;;6.00;99.90;;;;;;5093859;28;19954;-73
2021/12/22 02:51:13;;;;;;;;;;;6.00;99.90;;;;;;5103705;28;19994;-73
2021/12/22 02:53:46;;;;;;;;;;;6.00;99.90;;;;;;5095516;28;19916;-73
2021/12/22 02:58:59;;;;;;;;;;;6.00;99.90;;;;;;5093356;28;20340;-73
2021/12/22 03:01:51;;;;;;;;;;;6.00;99.90;;;;;;5100083;28;19918;-75
2021/12/22 03:04:13;;;;;;;;;;;6.00;99.90;;;;;;5092937;28;19931;-72
2021/12/22 03:09:17;;;;;;;;;;;5.90;99.90;;;;;;5086435;28;21230;-74
2021/12/22 03:11:43;;;;;;;;;;;5.80;99.90;;;;;;5094460;28;19955;-73
2021/12/22 03:14:09;;;;;;;;;;;5.80;99.90;;;;;;5092472;28;19962;-74
2021/12/22 03:16:34;;;;;;;;;;;5.90;99.90;;;;;;5091921;28;19908;-75
2021/12/22 03:19:00;;;;;;;;;;;6.00;99.90;;;;;;5098368;28;20032;-74
2021/12/22 03:21:25;;;;;;;;;;;6.10;99.90;;;;;;5095773;28;19977;-74
2021/12/22 03:23:52;;;;;;;;;;;6.10;99.90;;;;;;5099686;28;19996;-74
2021/12/22 03:26:18;;;;;;;;;;;6.20;99.90;;;;;;5094938;28;19915;-74
2021/12/22 03:28:45;;;;;;;;;;;6.10;99.90;;;;;;5093838;28;19999;-74
2021/12/22 03:31:11;;;;;;;;;;;6.10;99.90;;;;;;5099571;28;20357;-74
2021/12/22 03:33:36;;;;;;;;;;;6.10;99.90;;;;;;5095251;28;19908;-73
2021/12/22 03:36:02;;;;;;;;;;;6.00;99.90;;;;;;5097855;28;20407;-73
2021/12/22 03:38:29;;;;;;;;;;;6.00;99.90;;;;;;5088411;28;19933;-73
2021/12/22 03:40:55;;;;;;;;;;;5.90;99.90;;;;;;5093034;28;19931;-73
2021/12/22 03:43:21;;;;;;;;;;;6.00;99.90;;;;;;5088602;28;20377;-73
2021/12/22 03:45:46;;;;;;;;;;;6.00;99.90;;;;;;5091392;28;20003;-73
2021/12/22 03:48:12;;;;;;;;;;;6.00;99.90;;;;;;5093054;28;19912;-73
2021/12/22 03:50:37;;;;;;;;;;;5.90;99.90;;;;;;5102104;28;20494;-73
2021/12/22 03:53:03;;;;;;;;;;;6.00;99.90;;;;;;5095396;28;19908;-73
2021/12/22 03:55:29;;;;;;;;;;;5.90;99.90;;;;;;5094156;28;19966;-73
2021/12/22 03:57:54;;;;;;;;;;;5.90;99.90;;;;;;5101187;28;19953;-74
2021/12/22 04:00:20;;;;;;;;;;;6.00;99.90;;;;;;5094379;28;20420;-73
2021/12/22 04:02:46;;;;;;;;;;;6.00;99.90;;;;;;5091190;28;20384;-73
2021/12/22 04:05:11;;;;;;;;;;;6.00;99.90;;;;;;5096852;28;19916;-73
2021/12/22 04:07:37;;;;;;;;;;;5.90;99.90;;;;;;5094185;28;19915;-72
2021/12/22 04:10:18;;;;;;;;;;;5.90;99.90;;;;;;5094357;28;19961;-72
2021/12/22 04:12:44;;;;;;;;;;;5.90;99.90;;;;;;5096266;28;19968;-72
2021/12/22 04:15:09;;;;;;;;;;;5.90;99.90;;;;;;5080007;28;19961;-73
2021/12/22 04:17:35;;;;;;;;;;;5.90;99.90;;;;;;5085754;28;19907;-73
2021/12/22 04:20:01;;;;;;;;;;;5.90;99.90;;;;;;5096393;28;19908;-74
2021/12/22 04:22:26;;;;;;;;;;;5.90;99.90;;;;;;5101012;28;19908;-74
2021/12/22 04:24:52;;;;;;;;;;;5.90;99.90;;;;;;5082251;28;19912;-74
2021/12/22 04:27:17;;;;;;;;;;;6.00;99.90;;;;;;5100451;28;20046;-74
2021/12/22 04:29:43;;;;;;;;;;;6.00;99.90;;;;;;5081297;28;19908;-73
2021/12/22 04:32:08;;;;;;;;;;;6.00;99.90;;;;;;5084146;28;19918;-73
2021/12/22 04:34:34;;;;;;;;;;;5.90;99.90;;;;;;5093268;28;19943;-73
2021/12/22 04:37:00;;;;;;;;;;;5.90;99.90;;;;;;5093191;28;19946;-75
2021/12/22 04:39:25;;;;;;;;;;;5.90;99.90;;;;;;5098177;28;19964;-73
2021/12/22 04:41:51;;;;;;;;;;;5.90;99.90;;;;;;5099992;28;19908;-74
2021/12/22 04:44:17;;;;;;;;;;;5.80;99.90;;;;;;5083030;28;19908;-74
2021/12/22 04:46:42;;;;;;;;;;;5.70;99.90;;;;;;5071966;28;19989;-74
2021/12/22 04:49:08;;;;;;;;;;;5.70;99.90;;;;;;5094083;28;20006;-74
2021/12/22 04:51:35;;;;;;;;;;;5.70;99.90;;;;;;5100675;28;19915;-74
2021/12/22 04:54:06;;;;;;;;;;;5.70;99.90;;;;;;5086921;28;19908;-74
2021/12/22 04:56:32;;;;;;;;;;;5.70;99.90;;;;;;5095601;28;20019;-73
2021/12/22 04:58:58;;;;;;;;;;;5.70;99.90;;;;;;5096979;28;20015;-73
2021/12/22 05:01:23;;;;;;;;;;;5.70;99.90;;;;;;5100434;28;19912;-74
2021/12/22 05:03:49;;;;;;;;;;;5.60;99.90;;;;;;5092999;28;20429;-74
2021/12/22 05:06:14;;;;;;;;;;;5.50;99.90;;;;;;5100350;28;20391;-74
2021/12/22 05:08:40;;;;;;;;;;;5.60;99.90;;;;;;5094900;28;20008;-74
2021/12/22 05:11:06;;;;;;;;;;;5.50;99.90;;;;;;5096561;28;20376;-74
2021/12/22 05:13:33;;;;;;;;;;;5.50;99.90;;;;;;5098266;28;20268;-73
2021/12/22 05:15:59;;;;;;;;;;;5.50;99.90;;;;;;5094194;28;19991;-73
2021/12/22 05:18:46;;;;;;;;;;;5.40;99.90;;;;;;5103027;28;19915;-75
2021/12/22 05:21:10;;;;;;;;;;;5.40;99.90;;;;;;5083305;28;19908;-75
2021/12/22 05:23:35;;;;;;;;;;;5.40;99.90;;;;;;5085685;28;19972;-74
2021/12/22 05:26:01;;;;;;;;;;;5.40;99.90;;;;;;5097332;28;20338;-75
2021/12/22 05:28:26;;;;;;;;;;;5.50;99.90;;;;;;5101983;28;19912;-74
2021/12/22 05:30:52;;;;;;;;;;;5.50;99.90;;;;;;5094752;28;20000;-74
2021/12/22 05:33:18;;;;;;;;;;;5.50;99.90;;;;;;5096231;28;19915;-73
2021/12/22 05:35:43;;;;;;;;;;;5.50;99.90;;;;;;5097168;28;19953;-73
2021/12/22 05:38:09;;;;;;;;;;;5.50;99.90;;;;;;5099621;28;20385;-73
2021/12/22 05:40:34;;;;;;;;;;;5.40;99.90;;;;;;5095645;28;19915;-75
2021/12/22 05:43:00;;;;;;;;;;;5.40;99.90;;;;;;5096686;28;19931;-73
2021/12/22 05:45:26;;;;;;;;;;;5.30;99.90;;;;;;5097853;28;20010;-74
2021/12/22 05:47:52;;;;;;;;;;;5.30;99.90;;;;;;5094738;28;20040;-75
2021/12/22 05:50:19;;;;;;;;;;;5.30;99.90;;;;;;5094467;28;19908;-75
2021/12/22 05:52:44;;;;;;;;;;;5.30;99.90;;;;;;5094009;28;19950;-75
2021/12/22 05:55:10;;;;;;;;;;;5.30;99.90;;;;;;5084773;28;19947;-74
2021/12/22 05:57:35;;;;;;;;;;;5.30;99.90;;;;;;5098041;28;19911;-73
2021/12/22 06:00:01;;;;;;;;;;;5.40;99.90;;;;;;5105029;28;19951;-75
2021/12/22 06:02:27;;;;;;;;;;;5.40;99.90;;;;;;5091389;28;19907;-75
2021/12/22 06:04:52;;;;;;;;;;;5.30;99.90;;;;;;5088060;28;19982;-73
2021/12/22 06:07:18;;;;;;;;;;;5.30;99.90;;;;;;5093497;28;20324;-72
2021/12/22 06:09:44;;;;;;;;;;;5.30;99.90;;;;;;5096272;28;20087;-74
2021/12/22 06:12:09;;;;;;;;;;;5.30;99.90;;;;;;5099924;28;20267;-72
2021/12/22 06:14:35;;;;;;;;;;;5.30;99.90;;;;;;5102585;28;19916;-73
2021/12/22 06:17:00;;;;;;;;;;;5.30;99.90;;;;;;5091360;28;20328;-76
2021/12/22 06:19:26;;;;;;;;;;;5.30;99.90;;;;;;5102909;28;19907;-75
2021/12/22 06:21:52;;;;;;;;;;;5.30;99.90;;;;;;5102046;28;19946;-74
2021/12/22 06:24:17;;;;;;;;;;;5.40;99.90;;;;;;5099063;28;19907;-75
2021/12/22 06:26:43;;;;;;;;;;;5.40;99.90;;;;;;5097005;28;19916;-74
2021/12/22 06:29:08;;;;;;;;;;;5.50;99.90;;;;;;5089148;28;19931;-75
2021/12/22 06:31:34;;;;;;;;;;;5.50;99.90;;;;;;5071434;28;19904;-73
2021/12/22 06:34:00;;;;;;;;;;;5.50;99.90;;;;;;5074265;28;20381;-74
2021/12/22 06:36:25;;;;;;;;;;;5.50;99.90;;;;;;5077229;28;19911;-75
2021/12/22 06:38:51;;;;;;;;;;;5.50;99.90;;;;;;5090697;28;20378;-75
2021/12/22 06:41:16;;;;;;;;;;;5.50;99.90;;;;;;5091674;28;19904;-75
2021/12/22 06:43:42;;;;;;;;;;;5.40;99.90;;;;;;5099214;28;20238;-74
2021/12/22 06:46:09;;;;;;;;;;;5.50;99.90;;;;;;5079456;28;20011;-75
2021/12/22 06:48:35;;;;;;;;;;;5.50;99.90;;;;;;5071901;28;19916;-67
2021/12/22 06:51:00;;;;;;;;;;;5.50;99.90;;;;;;5070894;28;19904;-66
2021/12/22 06:53:26;;;;;;;;;;;5.40;99.90;;;;;;5086259;28;19908;-65
2021/12/22 06:55:52;;;;;;;;;;;5.50;99.90;;;;;;5104335;27;19908;-65
2021/12/22 06:58:17;;;;;;;;;;;5.50;99.90;;;;;;5090140;28;20023;-68
2021/12/22 07:00:43;;;;;;;;;;;5.50;99.90;;;;;;5100210;28;20262;-68
2021/12/22 07:03:09;;;;;;;;;;;5.50;99.90;;;;;;5094429;28;20325;-66
2021/12/22 07:05:34;;;;;;;;;;;5.40;99.90;;;;;;5091866;28;20323;-68
2021/12/22 07:08:00;;;;;;;;;;;5.40;99.90;;;;;;5095331;28;19907;-67
2021/12/22 07:10:25;;;;;;;;;;;5.30;99.90;;;;;;5087159;28;19912;-67
2021/12/22 07:12:51;;;;;;;;;;;5.30;99.90;;;;;;5095294;28;19908;-67
2021/12/22 07:15:17;;;;;;;;;;;5.40;99.90;;;;;;5089328;28;19908;-66
2021/12/22 07:17:44;;;;;;;;;;;5.30;99.90;;;;;;5096748;28;20356;-66
2021/12/22 07:20:10;;;;;;;;;;;5.40;99.90;;;;;;5095813;28;19931;-68
2021/12/22 07:22:36;;;;;;;;;;;5.40;99.90;;;;;;5097629;28;19916;-67
2021/12/22 07:25:02;;;;;;;;;;;5.50;99.90;;;;;;5089896;28;19915;-67
2021/12/22 07:27:28;;;;;;;;;;;5.40;99.90;;;;;;5089826;28;19919;-66
2021/12/22 07:29:53;;;;;;;;;;;5.40;99.90;;;;;;5094241;28;19904;-66
2021/12/22 07:32:19;;;;;;;;;;;5.40;99.90;;;;;;5100227;28;20041;-66
2021/12/22 07:34:56;;;;;;;;;;;5.40;99.90;;;;;;5098264;28;20003;-68
2021/12/22 07:37:21;;;;;;;;;;;5.50;99.90;;;;;;5087876;28;20411;-66
2021/12/22 07:39:47;;;;;;;;;;;5.50;99.90;;;;;;5092083;28;19963;-67
2021/12/22 07:42:12;;;;;;;;;;;5.40;99.90;;;;;;5100756;28;19929;-67
2021/12/22 07:44:38;;;;;;;;;;;5.40;99.90;;;;;;5096386;28;19998;-66
2021/12/22 07:47:04;;;;;;;;;;;5.40;99.90;;;;;;5101249;28;19915;-66
2021/12/22 07:49:29;;;;;;;;;;;5.50;99.90;;;;;;5093119;28;19908;-68
2021/12/22 07:51:55;;;;;;;;;;;5.50;99.90;;;;;;5101935;28;19932;-66
2021/12/22 07:54:21;;;;;;;;;;;5.50;99.90;;;;;;5094637;28;20019;-66
2021/12/22 07:56:46;;;;;;;;;;;5.50;99.90;;;;;;5087428;28;19920;-67
2021/12/22 07:59:12;;;;;;;;;;;5.50;99.90;;;;;;5098146;28;20407;-67
2021/12/22 08:01:37;;;;;;;;;;;5.60;99.90;;;;;;5092752;28;19958;-69
2021/12/22 08:04:03;;;;;;;;;;;5.60;99.90;;;;;;5096665;28;19951;-66
2021/12/22 08:06:28;;;;;;;;;;;5.60;99.90;;;;;;5101361;28;20301;-66
2021/12/22 08:08:54;;;;;;;;;;;5.60;99.90;;;;;;5098995;28;19918;-65
2021/12/22 08:11:20;;;;;;;;;;;5.60;99.90;;;;;;5099322;28;19991;-66
2021/12/22 08:13:46;;;;;;;;;;;5.50;99.90;;;;;;5101338;28;19911;-66
2021/12/22 08:16:11;;;;;;;;;;;5.50;99.90;;;;;;5100861;28;19960;-67
2021/12/22 08:18:37;;;;;;;;;;;5.40;99.90;;;;;;5099073;28;19911;-67
2021/12/22 08:21:02;;;;;;;;;;;5.40;99.90;;;;;;5099087;28;19904;-67
2021/12/22 08:23:28;;;;;;;;;;;5.40;99.90;;;;;;5104896;28;20381;-67
2021/12/22 08:25:54;;;;;;;;;;;5.50;99.90;;;;;;5096952;28;20383;-67
2021/12/22 08:28:19;;;;;;;;;;;5.60;99.90;;;;;;5086012;28;20001;-66
2021/12/22 08:30:45;;;;;;;;;;;5.60;99.90;;;;;;5078344;28;19904;-66
2021/12/22 08:33:20;;;;;;;;;;;5.70;99.90;;;;;;5093225;28;19912;-66
2021/12/22 08:38:53;;;;;;;;;;;6.00;99.90;;;;;;5099232;28;20380;-67
2021/12/22 08:41:20;;;;;;;;;;;5.90;99.90;;;;;;5076317;28;20358;-69
2021/12/22 08:43:46;;;;;;;;;;;6.00;99.90;;;;;;5073325;28;19916;-66
2021/12/22 08:46:11;;;;;;;;;;;6.10;99.90;;;;;;5096923;28;19904;-64
2021/12/22 08:48:37;;;;;;;;;;;6.00;99.90;;;;;;5102027;28;19913;-68
2021/12/22 08:51:03;;;;;;;;;;;6.00;99.90;;;;;;5094487;28;19911;-67
2021/12/22 08:53:28;;;;;;;;;;;6.00;99.90;;;;;;5100221;28;19954;-68
2021/12/22 08:55:54;;;;;;;;;;;6.00;99.90;;;;;;5094401;28;20253;-67
2021/12/22 08:58:19;;;;;;;;;;;5.90;99.90;;;;;;5102136;28;20022;-66
2021/12/22 09:00:45;;;;;;;;;;;6.00;99.90;;;;;;5095027;28;19912;-68
2021/12/22 09:03:11;;;;;;;;;;;6.10;99.90;;;;;;5103186;28;19926;-70
2021/12/22 09:05:36;;;;;;;;;;;6.10;99.90;;;;;;5109912;28;19910;-66
2021/12/22 09:08:02;;;;;;;;;;;6.00;99.90;;;;;;5099173;28;19911;-68
2021/12/22 09:10:27;;;;;;;;;;;6.20;99.90;;;;;;5097236;28;19908;-68
2021/12/22 09:12:53;;;;;;;;;;;6.20;99.90;;;;;;5096450;28;19912;-67
2021/12/22 09:15:19;;;;;;;;;;;6.30;99.90;;;;;;5096552;28;20010;-70
2021/12/22 09:17:45;;;;;;;;;;;6.30;99.90;;;;;;5100847;28;20147;-68
2021/12/22 09:20:10;;;;;;;;;;;6.40;99.90;;;;;;5098187;28;19908;-67
2021/12/22 09:22:36;;;;;;;;;;;6.40;99.90;;;;;;5088438;28;19966;-68
2021/12/22 09:25:03;;;;;;;;;;;6.50;99.90;;;;;;5095618;28;19914;-68
2021/12/22 09:27:28;;;;;;;;;;;6.60;99.90;;;;;;5093627;28;19916;-68
2021/12/22 09:29:54;;;;;;;;;;;6.50;99.90;;;;;;5092608;28;20413;-68
2021/12/22 09:32:21;;;;;;;;;;;6.50;99.90;;;;;;5089482;28;20352;-67
2021/12/22 09:34:49;;;;;;;;;;;6.50;99.90;;;;;;5086582;28;20022;-68
2021/12/22 09:37:16;;;;;;;;;;;6.40;99.90;;;;;;5086555;28;19908;-68
2021/12/22 09:39:42;;;;;;;;;;;6.50;99.90;;;;;;5084902;28;20380;-67
2021/12/22 09:42:08;;;;;;;;;;;6.50;99.90;;;;;;5097255;28;19908;-67
2021/12/22 09:44:38;;;;;;;;;;;6.50;99.90;;;;;;5100849;28;20265;-67
2021/12/22 09:47:04;;;;;;;;;;;6.60;99.90;;;;;;5092148;28;19908;-68
2021/12/22 09:52:19;;;;;;;;;;;6.80;99.90;;;;;;5088185;28;19983;-68
2021/12/22 09:54:46;;;;;;;;;;;6.80;99.90;;;;;;5084091;28;19912;-67
2021/12/22 09:57:12;;;;;;;;;;;6.80;99.90;;;;;;5072097;28;19916;-68
2021/12/22 09:59:39;;;;;;;;;;;6.70;99.90;;;;;;5083996;28;20332;-69
2021/12/22 10:02:05;;;;;;;;;;;6.70;99.90;;;;;;5090256;28;19912;-67
2021/12/22 10:04:31;;;;;;;;;;;6.70;99.90;;;;;;5087471;28;20196;-67
2021/12/22 10:06:56;;;;;;;;;;;6.80;99.90;;;;;;5094863;28;20357;-68
2021/12/22 10:09:23;;;;;;;;;;;6.80;99.90;;;;;;5099394;28;19911;-67
2021/12/22 10:11:48;;;;;;;;;;;6.80;99.90;;;;;;5101414;28;20441;-68
2021/12/22 10:14:23;;;;;;;;;;;6.90;99.90;;;;;;5090168;28;19991;-66
2021/12/22 10:16:51;;;;;;;;;;;7.00;99.90;;;;;;5096371;28;19946;-68
2021/12/22 10:19:16;;;;;;;;;;;6.90;99.90;;;;;;5098622;28;19908;-66
2021/12/22 10:21:54;;;;;;;;;;;6.90;99.90;;;;;;5091812;28;19946;-67
2021/12/22 10:24:32;;;;;;;;;;;6.80;99.90;;;;;;5092595;28;19919;-67
2021/12/22 10:27:04;;;;;;;;;;;6.90;99.90;;;;;;5096279;28;20432;-67
2021/12/22 10:29:31;;;;;;;;;;;6.90;99.90;;;;;;5097717;28;20002;-67
2021/12/22 10:32:04;;;;;;;;;;;6.90;99.90;;;;;;5077564;28;20030;-67
2021/12/22 10:34:30;;;;;;;;;;;6.70;99.90;;;;;;5097382;28;19946;-67
2021/12/22 10:36:55;;;;;;;;;;;6.80;99.90;;;;;;5104613;28;19951;-68
2021/12/22 10:39:28;;;;;;;;;;;6.90;99.90;;;;;;5100935;28;19907;-66
2021/12/22 10:42:04;;;;;;;;;;;7.00;99.90;;;;;;5093867;28;21431;-69
2021/12/22 10:44:36;;;;;;;;;;;6.90;99.90;;;;;;5098006;28;19912;-67
2021/12/22 10:47:22;;;;;;;;;;;6.90;99.90;;;;;;5095789;28;19908;-67
2021/12/22 10:49:58;;;;;;;;;;;7.00;99.90;;;;;;5100219;28;20210;-70
2021/12/22 10:52:24;;;;;;;;;;;7.10;99.90;;;;;;5098595;28;19908;-67
2021/12/22 10:54:51;;;;;;;;;;;7.20;99.90;;;;;;5098194;28;20013;-68
2021/12/22 10:57:17;;;;;;;;;;;7.20;99.90;;;;;;5097950;28;20357;-67
2021/12/22 10:59:45;;;;;;;;;;;7.20;99.90;;;;;;5093668;28;19908;-67
2021/12/22 11:02:12;;;;;;;;;;;7.10;99.90;;;;;;5102066;28;19919;-68
2021/12/22 11:04:42;;;;;;;;;;;7.20;99.90;;;;;;5100944;28;20303;-68
2021/12/22 11:07:22;;;;;;;;;;;7.30;99.90;;;;;;5107241;28;19911;-67
2021/12/22 11:09:48;;;;;;;;;;;7.30;99.90;;;;;;5105748;28;19936;-67
2021/12/22 11:12:17;;;;;;;;;;;7.30;99.90;;;;;;5094365;28;19953;-68
2021/12/22 11:14:47;;;;;;;;;;;7.40;99.90;;;;;;5102766;28;19932;-68
2021/12/22 11:17:17;;;;;;;;;;;7.40;99.90;;;;;;5092679;28;19912;-69
2021/12/22 11:19:49;;;;;;;;;;;7.50;99.90;;;;;;5095590;28;19915;-69
2021/12/22 11:22:16;;;;;;;;;;;7.60;99.90;;;;;;5099178;28;20231;-69
2021/12/22 11:24:46;;;;;;;;;;;7.60;99.90;;;;;;5105212;28;19914;-67
2021/12/22 11:27:14;;;;;;;;;;;7.60;99.90;;;;;;5103001;28;19908;-68
2021/12/22 11:29:41;;;;;;;;;;;7.70;99.90;;;;;;5099736;28;19912;-66
2021/12/22 11:32:07;;;;;;;;;;;7.70;99.90;;;;;;5100353;28;19915;-68
2021/12/22 11:34:35;;;;;;;;;;;7.80;99.90;;;;;;5102003;28;19976;-68
2021/12/22 11:37:01;;;;;;;;;;;7.80;99.90;;;;;;5097038;28;19901;-66
2021/12/22 11:39:27;;;;;;;;;;;7.70;99.90;;;;;;5100264;28;19908;-67
2021/12/22 11:41:58;;;;;;;;;;;7.80;99.90;;;;;;5106441;28;20006;-66
2021/12/22 11:44:24;;;;;;;;;;;7.90;99.90;;;;;;5081310;28;19908;-67
2021/12/22 11:46:52;;;;;;;;;;;7.80;99.90;;;;;;5094107;28;19914;-70
2021/12/22 11:49:19;;;;;;;;;;;7.80;99.90;;;;;;5105275;28;19950;-68
2021/12/22 11:51:45;;;;;;;;;;;7.90;99.90;;;;;;5098376;28;20018;-68
2021/12/22 11:54:10;;;;;;;;;;;7.90;99.90;;;;;;5100646;28;20725;-68
2021/12/22 11:56:39;;;;;;;;;;;7.80;99.90;;;;;;5106359;28;19912;-69
2021/12/22 11:59:05;;;;;;;;;;;7.90;99.90;;;;;;5095269;28;19938;-68
2021/12/22 12:01:31;;;;;;;;;;;7.90;99.90;;;;;;5105222;28;19918;-70
2021/12/22 12:04:10;;;;;;;;;;;7.90;99.90;;;;;;5109417;28;19908;-72
2021/12/22 12:06:48;;;;;;;;;;;7.90;99.90;;;;;;5097655;28;19919;-66
2021/12/22 12:09:14;;;;;;;;;;;7.90;99.90;;;;;;5100743;28;19935;-67
2021/12/22 12:11:54;;;;;;;;;;;7.90;99.90;;;;;;5094387;28;20290;-67
2021/12/22 12:14:39;;;;;;;;;;;7.80;99.90;;;;;;5103120;28;20338;-66
2021/12/22 12:23:16;;;;;;;;;;;7.70;99.90;;;;;;5101652;28;20392;-70
2021/12/22 12:25:42;;;;;;;;;;;7.60;99.90;;;;;;5102642;28;19961;-68
2021/12/22 12:28:15;;;;;;;;;;;7.60;99.90;;;;;;5102921;28;19912;-69
2021/12/22 12:30:45;;;;;;;;;;;7.60;99.90;;;;;;5090918;28;19954;-65
2021/12/22 12:33:21;;;;;;;;;;;7.70;99.90;;;;;;5095686;28;19918;-68
2021/12/22 12:35:53;;;;;;;;;;;7.70;99.90;;;;;;5094970;28;19915;-70
2021/12/22 12:38:24;;;;;;;;;;;7.70;99.90;;;;;;5103377;28;19908;-69
2021/12/22 12:43:40;;;;;;;;;;;7.60;99.90;;;;;;5091791;28;19912;-68
2021/12/22 12:46:24;;;;;;;;;;;7.60;99.90;;;;;;5090499;28;19912;-70
2021/12/22 12:48:50;;;;;;;;;;;7.50;99.90;;;;;;5090359;28;19916;-70
2021/12/22 12:51:16;;;;;;;;;;;7.40;99.90;;;;;;5092241;28;19908;-73
2021/12/22 12:53:43;;;;;;;;;;;7.50;99.90;;;;;;5092865;28;19904;-71
2021/12/22 12:56:10;;;;;;;;;;;7.40;99.90;;;;;;5088712;28;19911;-69
2021/12/22 12:58:52;;;;;;;;;;;7.50;99.90;;;;;;5093407;28;19958;-67
2021/12/22 13:01:18;;;;;;;;;;;7.40;99.90;;;;;;5091879;28;19928;-67
2021/12/22 13:03:49;;;;;;;;;;;7.30;99.90;;;;;;5090206;28;19915;-68
2021/12/22 13:06:15;;;;;;;;;;;7.20;99.90;;;;;;5092944;28;20285;-67
2021/12/22 13:08:41;;;;;;;;;;;7.20;99.90;;;;;;5093156;28;19958;-67
2021/12/22 13:11:14;;;;;;;;;;;7.20;99.90;;;;;;5092783;28;20011;-68
2021/12/22 13:15:45;;;;;;;;;;;7.20;99.90;;;;;;5072650;28;19909;-66
2021/12/22 13:16:38;;;;;;;;;;;7.10;99.90;;;;;;5072591;28;20275;-67
2021/12/22 13:19:04;;;;;;;;;;;7.20;99.90;;;;;;5073119;28;20231;-68
2021/12/22 13:21:30;;;;;;;;;;;7.30;99.90;;;;;;5072994;28;19911;-67
2021/12/22 13:23:55;;;;;;;;;;;7.30;99.90;;;;;;5108327;28;20018;-68
2021/12/22 13:26:21;;;;;;;;;;;7.20;99.90;;;;;;5106640;28;20353;-67
2021/12/22 13:28:46;;;;;;;;;;;7.20;99.90;;;;;;5080842;28;19926;-67
2021/12/22 13:31:12;;;;;;;;;;;7.10;99.90;;;;;;5092338;28;19908;-67
2021/12/22 13:33:43;;;;;;;;;;;7.10;99.90;;;;;;5073416;28;19905;-67
2021/12/22 13:36:10;;;;;;;;;;;7.10;99.90;;;;;;5072737;28;20220;-68
2021/12/22 13:38:35;;;;;;;;;;;7.00;99.90;;;;;;5072370;28;19973;-67
2021/12/22 13:41:01;;;;;;;;;;;6.90;99.90;;;;;;5072380;28;20397;-67
2021/12/22 13:43:28;;;;;;;;;;;7.00;99.90;;;;;;5072652;28;20001;-68
2021/12/22 13:46:11;;;;;;;;;;;6.90;99.90;;;;;;5072423;28;20045;-68
2021/12/22 13:48:52;;;;;;;;;;;7.00;99.90;;;;;;5072239;28;19908;-68
2021/12/22 13:51:26;;;;;;;;;;;7.00;99.90;;;;;;5072648;28;19911;-69
2021/12/22 13:53:52;;;;;;;;;;;6.80;99.90;;;;;;5072613;28;20362;-68
2021/12/22 13:56:18;;;;;;;;;;;6.60;99.90;;;;;;5072282;28;19904;-67
2021/12/22 13:58:58;;;;;;;;;;;6.50;99.90;;;;;;5072366;28;19931;-67
2021/12/22 14:01:26;;;;;;;;;;;6.30;99.90;;;;;;5078786;28;19912;-66
2021/12/22 14:04:03;;;;;;;;;;;6.20;99.90;;;;;;5091674;28;19958;-68
2021/12/22 14:06:38;;;;;;;;;;;6.20;99.90;;;;;;5092579;28;20268;-67
2021/12/22 14:09:08;;;;;;;;;;;6.20;99.90;;;;;;5091793;28;19908;-67
2021/12/22 14:11:35;;;;;;;;;;;6.20;99.90;;;;;;5080986;28;20260;-66
2021/12/22 14:14:21;;;;;;;;;;;6.20;99.90;;;;;;5071752;28;19920;-66
2021/12/22 14:16:47;;;;;;;;;;;6.10;99.90;;;;;;5088919;28;19908;-67
2021/12/22 14:19:20;;;;;;;;;;;6.10;99.90;;;;;;5091673;28;19927;-68
2021/12/22 14:21:48;;;;;;;;;;;6.00;99.90;;;;;;5079295;28;19994;-67
2021/12/22 14:24:19;;;;;;;;;;;6.00;99.90;;;;;;5082708;28;20231;-66
2021/12/22 14:26:48;;;;;;;;;;;6.00;99.90;;;;;;5090946;28;19961;-66
2021/12/22 14:29:14;;;;;;;;;;;6.00;99.90;;;;;;5088179;28;19995;-67
2021/12/22 14:32:02;;;;;;;;;;;6.00;99.90;;;;;;5080777;28;20023;-67
2021/12/22 14:34:28;;;;;;;;;;;5.90;99.90;;;;;;5071066;28;19904;-67
2021/12/22 14:36:54;;;;;;;;;;;5.80;99.90;;;;;;5071015;28;20235;-69
2021/12/22 14:39:20;;;;;;;;;;;5.70;99.90;;;;;;5071165;28;19915;-67
2021/12/22 14:41:46;;;;;;;;;;;5.70;99.90;;;;;;5071608;28;20441;-67
2021/12/22 14:44:17;;;;;;;;;;;5.70;99.90;;;;;;5071349;28;20328;-68
2021/12/22 14:46:43;;;;;;;;;;;5.70;99.90;;;;;;5071269;28;20301;-68
2021/12/22 14:49:24;;;;;;;;;;;5.70;99.90;;;;;;5071051;28;19918;-67
2021/12/22 14:51:50;;;;;;;;;;;5.70;99.90;;;;;;5071422;28;19956;-67
2021/12/22 14:54:23;;;;;;;;;;;5.70;99.90;;;;;;5071749;28;20342;-68
2021/12/22 14:56:52;;;;;;;;;;;5.70;99.90;;;;;;5071613;28;19904;-67